Time;durP1;ratioP1;P1;durP2;ratioP2;P2;SDS_P1;SDS_P2;PMS_P1;PMS_P2;Temp;Humidity;BMP_temperature;BMP_pressure;BME280_temperature;BME280_humidity;BME280_pressure;Samples;Min_cycle;Max_cycle;Signal;HPM_P1;HPM_P2
2021/01/29 00:00:54;;;;;;;16.90;16.00;;;11.00;85.30;;;;;;5033737;28;20479;-78
2021/01/29 00:03:20;;;;;;;16.60;15.73;;;10.90;85.80;;;;;;5033711;28;20451;-78
2021/01/29 00:05:51;;;;;;;16.30;15.60;;;10.90;85.80;;;;;;5033354;28;20455;-78
2021/01/29 00:08:19;;;;;;;16.37;15.60;;;10.90;85.50;;;;;;5033253;28;20484;-78
2021/01/29 00:10:46;;;;;;;16.30;15.50;;;10.80;85.80;;;;;;5033722;28;20444;-78
2021/01/29 00:13:14;;;;;;;16.10;15.40;;;10.60;86.40;;;;;;5033839;28;20474;-78
2021/01/29 00:15:42;;;;;;;15.50;14.80;;;10.60;86.60;;;;;;5033198;28;20842;-78
2021/01/29 00:18:09;;;;;;;15.80;15.10;;;10.70;86.50;;;;;;5033433;28;20463;-78
2021/01/29 00:20:36;;;;;;;15.20;14.50;;;10.60;86.80;;;;;;5033287;28;20483;-78
2021/01/29 00:23:03;;;;;;;15.47;14.77;;;10.60;87.60;;;;;;5033438;28;20539;-78
2021/01/29 00:25:36;;;;;;;15.40;14.70;;;10.60;87.60;;;;;;5033227;28;20509;-78
2021/01/29 00:28:03;;;;;;;15.63;14.93;;;10.50;88.20;;;;;;5033517;28;20841;-78
2021/01/29 00:30:30;;;;;;;15.20;14.50;;;10.40;88.40;;;;;;5033429;28;20448;-78
2021/01/29 00:32:57;;;;;;;15.10;14.40;;;10.40;88.60;;;;;;5033805;28;20478;-78
2021/01/29 00:35:27;;;;;;;15.10;14.50;;;10.40;88.70;;;;;;5039124;28;20455;-78
2021/01/29 00:37:54;;;;;;;15.13;14.33;;;10.30;89.10;;;;;;5040672;28;20472;-78
2021/01/29 00:40:21;;;;;;;14.13;13.53;;;10.30;89.50;;;;;;5033210;28;20484;-78
2021/01/29 00:42:48;;;;;;;13.53;12.93;;;10.20;90.10;;;;;;5033133;28;20447;-78
2021/01/29 00:45:17;;;;;;;13.70;13.10;;;10.30;90.50;;;;;;5033118;28;20452;-78
2021/01/29 00:47:43;;;;;;;13.67;13.07;;;10.20;90.70;;;;;;5032727;28;20475;-78
2021/01/29 00:50:12;;;;;;;14.00;13.40;;;10.20;91.00;;;;;;5032158;28;20546;-78
2021/01/29 00:52:38;;;;;;;13.67;12.97;;;10.20;91.00;;;;;;5032883;28;20550;-78
2021/01/29 00:55:07;;;;;;;13.37;12.77;;;10.30;90.70;;;;;;5033158;28;20460;-78
2021/01/29 00:57:33;;;;;;;13.33;12.83;;;10.40;90.70;;;;;;5033497;28;20480;-78
2021/01/29 01:00:00;;;;;;;13.10;12.60;;;10.40;90.70;;;;;;5034787;28;20547;-78
2021/01/29 01:02:26;;;;;;;13.10;12.50;;;10.40;90.90;;;;;;5034413;28;20504;-78
2021/01/29 01:04:54;;;;;;;13.43;12.93;;;10.40;90.90;;;;;;5033681;28;20491;-78
2021/01/29 01:07:21;;;;;;;13.17;12.57;;;10.40;90.80;;;;;;5032916;28;20889;-78
2021/01/29 01:09:49;;;;;;;13.63;12.93;;;10.50;90.80;;;;;;5032795;28;20462;-78
2021/01/29 01:12:15;;;;;;;13.60;12.90;;;10.40;91.30;;;;;;5032864;28;20480;-78
2021/01/29 01:14:41;;;;;;;13.57;12.97;;;10.40;91.20;;;;;;5032492;28;20459;-78
2021/01/29 01:17:08;;;;;;;13.60;13.00;;;10.40;91.10;;;;;;5032460;28;20468;-78
2021/01/29 01:19:35;;;;;;;13.60;13.00;;;10.40;91.00;;;;;;5032691;28;20971;-78
2021/01/29 01:22:02;;;;;;;13.53;12.83;;;10.40;90.80;;;;;;5032597;28;20498;-78
2021/01/29 01:24:30;;;;;;;12.90;12.40;;;10.50;90.80;;;;;;5033861;28;20456;-78
2021/01/29 01:26:56;;;;;;;13.50;12.90;;;10.50;90.70;;;;;;5034429;28;20472;-78
2021/01/29 01:29:22;;;;;;;14.27;13.60;;;10.50;90.70;;;;;;5033802;28;20463;-78
2021/01/29 01:31:51;;;;;;;13.67;12.97;;;10.50;90.90;;;;;;5033173;28;20456;-78
2021/01/29 01:34:18;;;;;;;13.90;13.30;;;10.50;91.00;;;;;;5032966;28;20452;-78
2021/01/29 01:36:44;;;;;;;14.17;13.57;;;10.40;91.30;;;;;;5032385;28;20478;-78
2021/01/29 01:39:10;;;;;;;14.23;13.60;;;10.40;91.40;;;;;;5032518;28;20459;-78
2021/01/29 01:41:37;;;;;;;13.57;12.97;;;10.40;91.40;;;;;;5032500;28;20476;-78
2021/01/29 01:44:23;;;;;;;13.60;13.10;;;10.40;91.10;;;;;;5032428;28;20963;-78
2021/01/29 01:46:51;;;;;;;14.63;14.03;;;10.40;91.30;;;;;;5032191;28;20480;-78
2021/01/29 01:49:19;;;;;;;14.00;13.40;;;10.40;91.50;;;;;;5032375;28;20448;-79
2021/01/29 01:51:51;;;;;;;13.60;13.00;;;10.50;91.30;;;;;;5032272;28;20459;-78
2021/01/29 01:54:24;;;;;;;13.37;12.87;;;10.50;91.40;;;;;;5032246;28;21023;-78
2021/01/29 01:56:53;;;;;;;14.10;13.50;;;10.50;91.50;;;;;;5032040;28;20534;-78
2021/01/29 01:59:23;;;;;;;14.20;13.50;;;10.40;91.60;;;;;;5032149;28;20452;-79
2021/01/29 02:01:52;;;;;;;14.20;13.60;;;10.40;91.70;;;;;;5035084;28;20571;-78
2021/01/29 02:04:20;;;;;;;14.47;13.67;;;10.30;91.90;;;;;;5036072;28;20464;-78
2021/01/29 02:06:55;;;;;;;13.53;12.83;;;10.30;92.10;;;;;;5035425;28;20475;-78
2021/01/29 02:09:24;;;;;;;13.87;13.17;;;10.30;92.00;;;;;;5035626;28;20960;-78
2021/01/29 02:11:52;;;;;;;13.77;13.07;;;10.30;92.30;;;;;;5035799;28;20956;-78
2021/01/29 02:14:18;;;;;;;163.40;26.80;;;10.30;92.30;;;;;;5035562;28;20825;-79
2021/01/29 02:16:52;;;;;;;13.60;12.90;;;10.30;93.30;;;;;;5035387;28;20474;-78
2021/01/29 02:19:56;;;;;;;13.40;12.70;;;10.30;92.40;;;;;;5035563;28;20550;-78
2021/01/29 02:22:55;;;;;;;13.40;12.80;;;10.30;92.00;;;;;;5035643;28;20887;-78
2021/01/29 02:25:54;;;;;;;13.50;12.80;;;10.30;92.00;;;;;;5035531;28;20455;-78
2021/01/29 02:28:40;;;;;;;13.10;12.50;;;10.30;91.80;;;;;;5037086;28;20472;-78
2021/01/29 02:31:27;;;;;;;18.53;13.27;;;10.30;91.90;;;;;;5044363;28;20454;-78
2021/01/29 02:34:34;;;;;;;132.90;21.90;;;10.20;92.30;;;;;;5035881;28;20530;-78
2021/01/29 02:37:48;;;;;;;12.40;11.90;;;10.20;92.60;;;;;;5035047;28;20479;-78
2021/01/29 02:40:20;;;;;;;12.20;11.70;;;10.30;92.00;;;;;;5035246;28;20452;-78
2021/01/29 02:43:11;;;;;;;12.60;12.00;;;10.30;92.20;;;;;;5035232;28;20460;-78
2021/01/29 02:45:43;;;;;;;12.50;11.90;;;10.30;92.10;;;;;;5034897;28;20455;-78
2021/01/29 02:48:19;;;;;;;12.40;11.90;;;10.30;91.80;;;;;;5034990;28;20519;-78
2021/01/29 02:50:56;;;;;;;12.63;12.13;;;10.30;91.90;;;;;;5034777;28;20535;-78
2021/01/29 02:53:33;;;;;;;12.67;12.10;;;10.30;91.70;;;;;;5035054;28;20456;-78
2021/01/29 02:56:10;;;;;;;12.53;12.03;;;10.20;91.80;;;;;;5034764;28;20469;-78
2021/01/29 02:58:44;;;;;;;12.40;11.90;;;10.20;91.90;;;;;;5034841;28;20498;-78
2021/01/29 03:01:18;;;;;;;12.53;12.03;;;10.30;91.60;;;;;;5034794;28;20506;-78
2021/01/29 03:03:51;;;;;;;12.70;12.20;;;10.20;91.80;;;;;;5034946;28;20490;-78
2021/01/29 03:06:23;;;;;;;13.00;12.40;;;10.30;91.70;;;;;;5034862;28;20964;-78
2021/01/29 03:08:55;;;;;;;13.10;12.60;;;10.30;91.50;;;;;;5034949;28;20475;-78
2021/01/29 03:11:31;;;;;;;12.83;12.33;;;10.20;91.70;;;;;;5034733;28;20512;-78
2021/01/29 03:14:04;;;;;;;13.40;12.90;;;10.20;91.80;;;;;;5033897;28;21003;-78
2021/01/29 03:16:35;;;;;;;12.90;12.40;;;10.30;91.40;;;;;;5034681;28;20460;-78
2021/01/29 03:19:08;;;;;;;13.00;12.40;;;10.40;91.10;;;;;;5034770;28;20459;-78
2021/01/29 03:21:39;;;;;;;13.97;13.37;;;10.40;91.00;;;;;;5034533;28;20490;-78
2021/01/29 03:24:10;;;;;;;13.80;13.10;;;10.40;91.30;;;;;;5034596;28;20589;-78
2021/01/29 03:26:49;;;;;;;13.33;12.73;;;10.30;91.40;;;;;;5034153;28;20574;-78
2021/01/29 03:29:20;;;;;;;13.30;12.40;;;10.30;91.50;;;;;;5034403;28;20461;-78
2021/01/29 03:31:50;;;;;;;13.00;12.40;;;10.30;91.50;;;;;;5034286;28;20455;-78
2021/01/29 03:34:22;;;;;;;12.63;12.13;;;10.30;91.30;;;;;;5034597;28;20478;-78
2021/01/29 03:36:59;;;;;;;12.93;12.43;;;10.30;91.20;;;;;;5033997;28;20472;-78
2021/01/29 03:39:31;;;;;;;13.17;12.67;;;10.30;91.30;;;;;;5034287;28;20501;-78
2021/01/29 03:42:06;;;;;;;13.30;12.70;;;10.30;91.50;;;;;;5034205;28;20502;-78
2021/01/29 03:44:44;;;;;;;13.13;12.63;;;10.40;91.30;;;;;;5034329;28;20447;-78
2021/01/29 03:47:14;;;;;;;13.63;13.03;;;10.40;91.00;;;;;;5033885;28;20486;-78
2021/01/29 03:49:46;;;;;;;13.80;13.20;;;10.50;90.70;;;;;;5034208;28;20452;-78
2021/01/29 03:52:19;;;;;;;14.10;13.50;;;10.40;90.80;;;;;;5036365;28;20468;-78
2021/01/29 03:54:55;;;;;;;12.70;12.20;;;10.40;91.20;;;;;;5037573;28;20498;-78
2021/01/29 03:57:29;;;;;;;13.40;12.80;;;10.50;90.70;;;;;;5042953;28;20479;-78
2021/01/29 04:00:09;;;;;;;13.07;12.57;;;10.50;90.50;;;;;;5041020;28;20553;-78
2021/01/29 04:02:43;;;;;;;12.67;12.17;;;10.40;90.60;;;;;;5034345;28;20512;-78
2021/01/29 04:05:15;;;;;;;13.53;12.93;;;10.50;90.30;;;;;;5033662;28;20479;-78
2021/01/29 04:07:51;;;;;;;13.50;12.90;;;10.50;90.90;;;;;;5033545;28;20487;-78
2021/01/29 04:10:20;;;;;;;13.70;13.10;;;10.40;91.00;;;;;;5033297;28;20494;-78
2021/01/29 04:12:54;;;;;;;14.07;13.47;;;10.50;90.90;;;;;;5033555;28;20992;-78
2021/01/29 04:15:26;;;;;;;13.87;13.27;;;10.50;90.80;;;;;;5033215;28;20456;-79
2021/01/29 04:17:59;;;;;;;14.03;13.43;;;10.50;90.30;;;;;;5033542;28;20562;-78
2021/01/29 04:20:35;;;;;;;13.67;12.80;;;10.50;90.80;;;;;;5033488;28;20466;-78
2021/01/29 04:23:06;;;;;;;13.87;13.27;;;10.50;90.60;;;;;;5033757;28;20459;-78
2021/01/29 04:25:36;;;;;;;13.93;13.30;;;10.50;90.70;;;;;;5042270;28;20464;-78
2021/01/29 04:28:07;;;;;;;14.40;13.60;;;10.30;90.90;;;;;;5036158;28;20476;-78
2021/01/29 04:30:36;;;;;;;13.90;13.30;;;10.40;91.10;;;;;;5034051;28;20459;-78
2021/01/29 04:33:06;;;;;;;14.73;13.93;;;10.40;90.70;;;;;;5033862;28;20458;-78
2021/01/29 04:35:33;;;;;;;14.47;13.77;;;10.40;90.50;;;;;;5035063;28;20458;-78
2021/01/29 04:38:07;;;;;;;14.00;13.43;;;10.40;90.60;;;;;;5034742;28;20468;-78
2021/01/29 04:40:42;;;;;;;14.00;13.40;;;10.30;90.20;;;;;;5033205;28;20456;-78
2021/01/29 04:43:29;;;;;;;14.13;13.53;;;10.40;90.20;;;;;;5033125;28;20859;-78
2021/01/29 04:46:22;;;;;;;13.83;13.20;;;10.30;90.20;;;;;;5033080;28;20460;-78
2021/01/29 04:48:55;;;;;;;15.33;14.70;;;10.30;90.20;;;;;;5033034;28;20830;-78
2021/01/29 04:51:45;;;;;;;14.07;13.37;;;10.40;90.00;;;;;;5032826;28;20460;-78
2021/01/29 04:54:44;;;;;;;13.83;13.23;;;10.30;90.00;;;;;;5033107;28;20794;-78
2021/01/29 04:57:46;;;;;;;14.23;13.63;;;10.40;89.90;;;;;;5027670;28;20818;-78
2021/01/29 05:00:47;;;;;;;13.80;13.20;;;10.20;90.80;;;;;;5032853;28;20452;-78
2021/01/29 05:04:02;;;;;;;14.20;13.60;;;10.20;90.70;;;;;;5033046;28;20513;-78
2021/01/29 05:06:52;;;;;;;12.70;12.20;;;10.10;91.00;;;;;;5006479;28;20459;-78
2021/01/29 05:09:48;;;;;;;12.90;12.40;;;10.10;91.20;;;;;;5032667;28;21003;-78
2021/01/29 05:12:39;;;;;;;13.20;12.60;;;10.10;91.40;;;;;;5032723;28;20482;-78
2021/01/29 05:15:35;;;;;;;14.13;13.40;;;10.10;91.50;;;;;;5032424;28;20467;-78
2021/01/29 05:18:44;;;;;;;13.30;12.70;;;10.10;91.60;;;;;;5032562;28;20521;-78
2021/01/29 05:21:25;;;;;;;13.97;13.10;;;10.10;91.60;;;;;;5032712;28;20480;-78
2021/01/29 05:24:36;;;;;;;13.20;12.60;;;10.10;91.70;;;;;;5032758;28;20458;-78
2021/01/29 05:27:35;;;;;;;13.00;12.40;;;10.10;91.70;;;;;;5032561;28;20459;-78
2021/01/29 05:30:17;;;;;;;12.60;12.10;;;10.00;92.10;;;;;;5029819;28;20486;-78
2021/01/29 05:32:58;;;;;;;12.10;11.60;;;10.10;92.10;;;;;;5032554;28;20452;-78
2021/01/29 05:35:58;;;;;;;12.70;12.10;;;10.20;92.30;;;;;;5033114;28;20452;-78
2021/01/29 05:38:41;;;;;;;12.80;12.30;;;10.10;92.40;;;;;;5036394;28;20490;-78
2021/01/29 05:41:32;;;;;;;12.33;11.83;;;10.10;92.50;;;;;;5036232;28;20486;-78
2021/01/29 05:44:46;;;;;;;12.43;11.90;;;10.10;92.40;;;;;;5036168;28;20579;-78
2021/01/29 05:47:32;;;;;;;13.43;12.83;;;10.20;92.20;;;;;;5036466;28;20480;-78
2021/01/29 05:50:12;;;;;;;12.83;12.23;;;10.20;92.10;;;;;;5036142;28;20509;-78
2021/01/29 05:53:03;;;;;;;14.00;13.40;;;10.10;91.80;;;;;;5036070;28;20451;-78
2021/01/29 05:55:45;;;;;;;14.00;13.40;;;10.10;91.60;;;;;;5035918;28;20483;-78
2021/01/29 05:58:53;;;;;;;12.70;12.17;;;10.00;91.70;;;;;;5035970;28;20475;-78
2021/01/29 06:01:52;;;;;;;13.50;12.80;;;10.00;91.50;;;;;;5035965;28;21061;-78
2021/01/29 06:04:42;;;;;;;13.50;12.90;;;9.90;91.60;;;;;;5036016;28;20957;-78
2021/01/29 06:07:33;;;;;;;13.30;12.60;;;9.90;92.10;;;;;;5035723;28;20468;-78
2021/01/29 06:10:47;;;;;;;12.70;12.20;;;9.80;92.70;;;;;;5035437;28;20742;-78
2021/01/29 06:13:43;;;;;;;13.40;12.90;;;9.70;93.40;;;;;;4957274;28;20454;-78
2021/01/29 06:16:53;;;;;;;13.70;13.10;;;9.70;93.00;;;;;;4977516;28;20446;-78
2021/01/29 06:19:45;;;;;;;12.13;11.50;;;9.80;92.40;;;;;;5043859;28;20528;-78
2021/01/29 06:22:51;;;;;;;12.10;11.60;;;9.80;92.30;;;;;;5037721;28;20226;-78
2021/01/29 06:25:44;;;;;;;12.10;11.60;;;9.80;92.80;;;;;;5035690;28;20452;-78
2021/01/29 06:29:00;;;;;;;12.07;11.47;;;9.80;93.00;;;;;;5035251;28;20467;-78
2021/01/29 06:31:59;;;;;;;12.20;11.67;;;9.80;93.40;;;;;;4993874;28;20457;-78
2021/01/29 06:34:47;;;;;;;12.40;11.87;;;9.90;93.40;;;;;;5034930;28;20799;-78
2021/01/29 06:37:24;;;;;;;13.93;13.03;;;9.80;93.60;;;;;;5035237;28;20887;-78
2021/01/29 06:40:02;;;;;;;11.80;11.20;;;9.90;93.40;;;;;;5035416;28;20451;-78
2021/01/29 06:42:47;;;;;;;11.70;11.20;;;9.90;93.20;;;;;;5035221;28;20985;-78
2021/01/29 06:45:46;;;;;;;11.13;10.63;;;9.90;93.40;;;;;;5035312;28;20466;-78
2021/01/29 06:48:42;;;;;;;11.20;10.80;;;9.90;93.20;;;;;;5036301;28;20540;-78
2021/01/29 06:51:44;;;;;;;12.53;12.03;;;10.00;92.80;;;;;;5037277;28;20197;-78
2021/01/29 06:54:25;;;;;;;11.83;11.20;;;10.00;92.40;;;;;;5035540;28;20800;-78
2021/01/29 06:57:21;;;;;;;11.90;11.40;;;10.00;92.10;;;;;;5034976;28;20549;-78
2021/01/29 07:00:17;;;;;;;12.23;11.63;;;10.10;91.70;;;;;;5034987;28;20896;-78
2021/01/29 07:03:24;;;;;;;13.10;12.50;;;10.10;91.50;;;;;;5034874;28;21007;-78
2021/01/29 07:06:08;;;;;;;12.90;12.40;;;10.10;91.50;;;;;;5014379;28;20457;-78
2021/01/29 07:08:56;;;;;;;13.37;12.83;;;10.10;90.90;;;;;;5034597;28;20468;-78
2021/01/29 07:11:43;;;;;;;13.00;12.40;;;10.10;89.90;;;;;;5029931;28;20987;-78
2021/01/29 07:14:32;;;;;;;13.60;13.00;;;10.10;88.20;;;;;;5034660;28;20502;-78
2021/01/29 07:17:07;;;;;;;13.97;13.17;;;10.20;88.30;;;;;;5021779;28;20506;-79
2021/01/29 07:20:00;;;;;;;13.73;13.00;;;10.20;87.90;;;;;;5035373;28;20493;-78
2021/01/29 07:22:47;;;;;;;13.90;13.27;;;10.30;87.50;;;;;;5035572;28;20482;-78
2021/01/29 07:25:23;;;;;;;14.87;14.07;;;10.30;87.70;;;;;;5044682;28;20451;-78
2021/01/29 07:28:00;;;;;;;14.73;14.13;;;10.40;87.20;;;;;;5042271;28;20468;-78
2021/01/29 07:30:47;;;;;;;15.27;14.57;;;10.50;86.70;;;;;;5035564;28;20512;-78
2021/01/29 07:33:22;;;;;;;14.40;13.80;;;10.50;86.40;;;;;;5004258;28;20805;-78
2021/01/29 07:36:03;;;;;;;14.40;13.80;;;10.50;85.20;;;;;;5033912;28;21034;-78
2021/01/29 07:38:58;;;;;;;14.17;13.57;;;10.50;85.10;;;;;;5034038;28;20476;-78
2021/01/29 07:41:47;;;;;;;16.73;15.87;;;10.60;85.10;;;;;;5034067;28;20487;-78
2021/01/29 07:44:30;;;;;;;15.70;14.80;;;10.70;85.40;;;;;;5035331;28;20448;-78
2021/01/29 07:47:18;;;;;;;16.90;16.00;;;10.80;84.50;;;;;;5035661;28;20521;-78
2021/01/29 07:49:57;;;;;;;15.20;14.60;;;10.80;83.90;;;;;;5034121;28;20448;-78
2021/01/29 07:52:32;;;;;;;15.50;14.80;;;10.90;83.80;;;;;;5033842;28;20538;-78
2021/01/29 07:55:18;;;;;;;16.90;16.10;;;10.90;83.60;;;;;;5033961;28;20447;-78
2021/01/29 07:58:15;;;;;;;17.40;16.60;;;10.90;83.50;;;;;;5033358;28;20464;-78
2021/01/29 08:00:56;;;;;;;16.00;15.30;;;10.90;82.20;;;;;;5033841;28;20871;-78
2021/01/29 08:03:56;;;;;;;17.17;16.47;;;11.00;82.20;;;;;;5033875;28;20530;-78
2021/01/29 08:06:25;;;;;;;16.00;15.20;;;11.00;82.20;;;;;;5033959;28;20456;-78
2021/01/29 08:08:57;;;;;;;17.00;16.20;;;11.00;82.40;;;;;;5033627;28;20466;-78
2021/01/29 08:11:25;;;;;;;16.80;16.00;;;11.10;81.90;;;;;;5034115;28;20456;-78
2021/01/29 08:14:06;;;;;;;17.00;16.00;;;11.00;81.30;;;;;;5038770;28;20454;-79
2021/01/29 08:16:53;;;;;;;16.33;15.53;;;11.10;81.50;;;;;;5034761;28;20452;-78
2021/01/29 08:19:27;;;;;;;16.60;15.70;;;11.10;81.10;;;;;;5033639;28;20909;-78
2021/01/29 08:22:15;;;;;;;16.60;15.90;;;11.20;81.30;;;;;;5033590;28;20479;-78
2021/01/29 08:24:58;;;;;;;17.17;16.47;;;11.20;81.20;;;;;;5033941;28;20459;-78
2021/01/29 08:28:00;;;;;;;17.37;16.57;;;11.20;82.00;;;;;;5033293;28;20467;-78
2021/01/29 08:30:43;;;;;;;16.33;15.57;;;11.30;82.10;;;;;;5033272;28;20457;-78
2021/01/29 08:33:33;;;;;;;15.90;15.20;;;11.30;81.90;;;;;;5033290;28;20456;-78
2021/01/29 08:36:19;;;;;;;15.80;15.10;;;11.30;81.30;;;;;;5033004;28;20960;-78
2021/01/29 08:38:56;;;;;;;16.17;15.47;;;11.40;81.60;;;;;;5033221;28;20891;-78
2021/01/29 08:41:28;;;;;;;15.80;15.00;;;11.40;82.20;;;;;;5033112;28;20884;-78
2021/01/29 08:44:13;;;;;;;16.13;15.43;;;11.40;82.10;;;;;;5033258;28;20455;-78
2021/01/29 08:46:49;;;;;;;17.20;16.40;;;11.40;81.90;;;;;;5032951;28;20941;-78
2021/01/29 08:49:31;;;;;;;17.60;16.80;;;11.40;81.50;;;;;;5033269;28;20932;-78
2021/01/29 08:52:10;;;;;;;16.60;15.60;;;11.30;82.20;;;;;;5033523;28;20460;-78
2021/01/29 08:54:57;;;;;;;17.10;16.30;;;11.40;81.40;;;;;;5033480;28;20896;-78
2021/01/29 08:57:33;;;;;;;17.50;16.67;;;11.50;79.40;;;;;;5033128;28;20475;-78
2021/01/29 09:00:00;;;;;;;17.57;16.70;;;11.40;79.40;;;;;;5032878;28;20956;-78
2021/01/29 09:02:48;;;;;;;17.97;17.17;;;11.40;78.40;;;;;;5032686;28;20479;-78
2021/01/29 09:05:22;;;;;;;18.90;18.00;;;11.40;77.90;;;;;;5032817;28;20460;-78
2021/01/29 09:07:56;;;;;;;18.37;17.50;;;11.40;78.10;;;;;;5032566;28;20476;-78
2021/01/29 09:10:32;;;;;;;17.80;17.00;;;11.40;77.80;;;;;;5031765;28;20468;-78
2021/01/29 09:13:01;;;;;;;18.53;17.67;;;11.60;77.90;;;;;;5032810;28;20826;-78
2021/01/29 09:15:42;;;;;;;19.63;18.67;;;11.70;77.80;;;;;;5032386;28;20458;-78
2021/01/29 09:18:16;;;;;;;19.43;18.53;;;11.80;76.90;;;;;;5032453;28;20984;-78
2021/01/29 09:20:50;;;;;;;18.90;18.00;;;11.80;76.80;;;;;;5032693;28;20462;-78
2021/01/29 09:23:23;;;;;;;21.43;19.77;;;11.80;76.30;;;;;;5033084;28;20491;-78
2021/01/29 09:25:53;;;;;;;19.30;18.20;;;11.80;75.80;;;;;;5032894;28;20481;-78
2021/01/29 09:28:28;;;;;;;19.50;18.60;;;11.70;75.80;;;;;;5032715;28;20861;-78
2021/01/29 09:30:58;;;;;;;21.47;20.47;;;11.80;76.10;;;;;;5032805;28;20885;-78
2021/01/29 09:33:30;;;;;;;21.37;20.27;;;11.80;76.00;;;;;;5033175;28;20462;-78
2021/01/29 09:36:01;;;;;;;19.73;18.70;;;12.00;75.40;;;;;;5033870;28;20452;-78
2021/01/29 09:38:32;;;;;;;19.93;18.93;;;12.10;74.70;;;;;;5033621;28;20985;-78
2021/01/29 09:41:08;;;;;;;21.33;20.03;;;12.20;74.00;;;;;;5034596;28;20456;-78
2021/01/29 09:43:54;;;;;;;21.90;20.80;;;12.20;73.80;;;;;;5033681;28;20447;-78
2021/01/29 09:46:25;;;;;;;21.53;20.43;;;12.10;72.80;;;;;;5032882;28;20806;-78
2021/01/29 09:48:59;;;;;;;22.53;21.20;;;12.10;72.50;;;;;;5032991;28;20456;-78
2021/01/29 09:51:37;;;;;;;22.00;20.90;;;12.10;71.40;;;;;;5032365;28;20452;-78
2021/01/29 09:54:10;;;;;;;23.23;21.83;;;12.10;72.00;;;;;;5033035;28;20460;-78
2021/01/29 09:56:42;;;;;;;21.83;20.73;;;12.40;72.00;;;;;;5032639;28;20455;-78
2021/01/29 09:59:21;;;;;;;23.00;21.70;;;12.50;71.10;;;;;;5035620;28;20456;-78
2021/01/29 10:01:55;;;;;;;22.47;21.27;;;12.70;70.10;;;;;;5032975;28;20490;-78
2021/01/29 10:04:29;;;;;;;23.63;22.20;;;12.70;69.40;;;;;;5032905;28;20451;-78
2021/01/29 10:06:59;;;;;;;23.57;22.00;;;12.50;67.80;;;;;;5036682;28;20517;-78
2021/01/29 10:09:27;;;;;;;22.30;21.10;;;12.50;68.70;;;;;;5036260;28;20456;-78
2021/01/29 10:12:04;;;;;;;22.87;21.60;;;12.40;68.00;;;;;;5032650;28;20499;-78
2021/01/29 10:14:38;;;;;;;23.73;22.10;;;12.40;68.60;;;;;;5032216;28;20810;-78
2021/01/29 10:17:13;;;;;;;24.40;23.07;;;12.50;68.30;;;;;;5032780;28;20578;-78
2021/01/29 10:19:42;;;;;;;23.10;21.80;;;12.50;67.60;;;;;;5032242;28;20473;-78
2021/01/29 10:22:56;;;;;;;23.93;22.47;;;12.20;67.30;;;;;;5034032;28;20511;-78
2021/01/29 10:25:34;;;;;;;24.90;23.10;;;12.10;67.80;;;;;;5031633;28;20454;-78
2021/01/29 10:28:06;;;;;;;24.50;22.90;;;11.90;68.60;;;;;;5035912;28;20471;-78
2021/01/29 10:30:39;;;;;;;24.50;23.00;;;12.00;67.80;;;;;;5035975;28;20817;-78
2021/01/29 10:33:10;;;;;;;23.93;22.47;;;11.90;68.90;;;;;;5035703;28;20448;-78
2021/01/29 10:35:44;;;;;;;23.67;22.37;;;11.90;69.10;;;;;;5035607;28;20459;-78
2021/01/29 10:38:16;;;;;;;24.10;22.63;;;11.90;68.20;;;;;;5035753;28;20996;-78
2021/01/29 10:40:55;;;;;;;25.67;24.07;;;11.90;67.90;;;;;;5035798;28;20929;-78
2021/01/29 10:43:31;;;;;;;23.80;22.50;;;12.00;68.20;;;;;;5038072;28;20475;-78
2021/01/29 10:46:15;;;;;;;25.33;23.43;;;12.00;67.60;;;;;;5036015;28;20992;-78
2021/01/29 10:48:49;;;;;;;23.20;21.90;;;12.00;67.50;;;;;;5035989;28;20479;-78
2021/01/29 10:51:40;;;;;;;25.23;23.77;;;12.00;67.20;;;;;;5035784;28;20474;-78
2021/01/29 10:54:07;;;;;;;24.07;22.50;;;12.10;67.50;;;;;;5044652;28;20452;-78
2021/01/29 10:56:58;;;;;;;24.87;23.57;;;12.20;67.20;;;;;;5042293;28;20452;-78
2021/01/29 10:59:29;;;;;;;23.97;22.53;;;12.30;65.50;;;;;;5035849;28;20447;-78
2021/01/29 11:02:00;;;;;;;23.60;21.97;;;12.40;66.20;;;;;;5035332;28;20487;-78
2021/01/29 11:04:32;;;;;;;23.10;21.80;;;12.40;66.40;;;;;;5035136;28;20460;-78
2021/01/29 11:07:02;;;;;;;25.67;24.17;;;12.40;65.60;;;;;;5034848;28;20475;-78
2021/01/29 11:09:32;;;;;;;24.73;23.10;;;12.30;65.60;;;;;;5034760;28;20532;-78
2021/01/29 11:12:17;;;;;;;25.17;23.37;;;12.30;65.70;;;;;;5034834;28;20456;-78
2021/01/29 11:14:52;;;;;;;25.27;23.77;;;12.40;66.20;;;;;;5035033;28;20463;-78
2021/01/29 11:17:23;;;;;;;23.93;22.53;;;12.30;66.00;;;;;;5034548;28;20475;-78
2021/01/29 11:19:52;;;;;;;23.50;22.07;;;12.20;66.00;;;;;;5034915;28;20456;-78
2021/01/29 11:22:26;;;;;;;23.07;21.73;;;12.20;67.20;;;;;;5034408;28;20479;-78
2021/01/29 11:25:33;;;;;;;23.90;22.20;;;12.20;66.70;;;;;;5034560;28;20455;-78
2021/01/29 11:28:06;;;;;;;24.10;22.50;;;12.20;67.10;;;;;;5034510;28;20478;-78
2021/01/29 11:30:37;;;;;;;23.10;21.60;;;12.20;67.60;;;;;;5034598;28;20851;-78
2021/01/29 11:33:06;;;;;;;22.50;21.20;;;12.20;67.70;;;;;;5033737;28;20452;-78
2021/01/29 11:35:44;;;;;;;24.93;23.70;;;12.20;67.80;;;;;;5034102;28;20451;-78
2021/01/29 11:38:45;;;;;;;23.60;22.13;;;12.20;67.90;;;;;;5034287;28;20480;-78
2021/01/29 11:41:26;;;;;;;24.80;23.30;;;12.30;68.00;;;;;;5034518;28;20481;-78
2021/01/29 11:43:58;;;;;;;25.10;23.40;;;12.40;67.80;;;;;;5034281;28;20448;-78
2021/01/29 11:46:26;;;;;;;24.13;22.73;;;12.40;67.60;;;;;;5034136;28;20516;-78
2021/01/29 11:49:07;;;;;;;23.43;21.93;;;12.40;68.10;;;;;;5034233;28;20456;-78
2021/01/29 11:51:37;;;;;;;26.17;24.07;;;12.40;67.90;;;;;;5033959;28;20456;-78
2021/01/29 11:54:14;;;;;;;28.80;23.27;;;12.60;67.50;;;;;;5033985;28;20459;-78
2021/01/29 11:56:52;;;;;;;22.83;21.53;;;12.50;67.50;;;;;;5034072;28;20969;-78
2021/01/29 11:59:27;;;;;;;23.87;22.10;;;12.40;67.30;;;;;;5036889;28;20459;-78
2021/01/29 12:02:04;;;;;;;23.57;22.07;;;12.40;67.60;;;;;;5037876;28;20482;-78
2021/01/29 12:04:40;;;;;;;23.70;22.27;;;12.50;67.80;;;;;;5033930;28;20456;-78
2021/01/29 12:07:13;;;;;;;23.77;22.23;;;12.60;67.60;;;;;;5033842;28;20483;-78
2021/01/29 12:09:46;;;;;;;24.00;22.40;;;12.60;67.00;;;;;;5033938;28;20494;-78
2021/01/29 12:12:22;;;;;;;24.10;22.40;;;12.60;66.60;;;;;;5033822;28;20941;-78
2021/01/29 12:15:11;;;;;;;23.67;22.10;;;12.50;66.80;;;;;;5033627;28;20455;-78
2021/01/29 12:17:40;;;;;;;25.50;23.90;;;12.40;67.70;;;;;;5033754;28;20475;-78
2021/01/29 12:20:10;;;;;;;25.10;23.50;;;12.50;65.90;;;;;;5033536;28;21071;-78
2021/01/29 12:22:41;;;;;;;24.07;22.53;;;12.30;65.60;;;;;;5033647;28;20486;-78
2021/01/29 12:25:36;;;;;;;23.50;22.10;;;12.40;66.00;;;;;;5033623;28;20949;-78
2021/01/29 12:28:15;;;;;;;24.87;22.87;;;12.30;65.00;;;;;;5033697;28;20578;-78
2021/01/29 12:30:58;;;;;;;25.30;23.60;;;12.40;64.60;;;;;;5034608;28;20451;-78
2021/01/29 12:33:28;;;;;;;24.30;22.80;;;12.60;64.50;;;;;;5035784;28;20937;-78
2021/01/29 12:35:58;;;;;;;23.63;22.17;;;12.60;63.70;;;;;;5034351;28;20462;-78
2021/01/29 12:38:31;;;;;;;23.83;22.17;;;12.70;64.00;;;;;;5035429;28;20471;-78
2021/01/29 12:41:09;;;;;;;23.50;21.90;;;12.80;63.90;;;;;;5034632;28;20487;-78
2021/01/29 12:43:40;;;;;;;24.87;23.30;;;12.60;64.70;;;;;;5033266;28;20497;-78
2021/01/29 12:46:13;;;;;;;24.33;22.83;;;12.50;65.00;;;;;;5033083;28;20452;-78
2021/01/29 12:48:56;;;;;;;24.30;22.70;;;12.50;65.20;;;;;;5033121;28;20479;-78
2021/01/29 12:51:27;;;;;;;24.47;22.67;;;12.50;65.20;;;;;;5033257;28;20463;-78
2021/01/29 12:54:16;;;;;;;25.40;23.87;;;12.40;66.40;;;;;;5033390;28;20462;-78
2021/01/29 12:57:00;;;;;;;24.40;22.77;;;12.40;66.60;;;;;;5032843;28;20463;-78
2021/01/29 12:59:54;;;;;;;25.10;23.50;;;12.50;67.00;;;;;;5033163;28;20452;-78
2021/01/29 13:03:03;;;;;;;25.63;23.73;;;12.50;66.80;;;;;;5032949;28;20476;-78
2021/01/29 13:05:49;;;;;;;24.27;22.77;;;12.40;66.40;;;;;;5032877;28;20466;-78
2021/01/29 13:08:46;;;;;;;23.00;21.70;;;12.30;65.90;;;;;;5032891;28;20468;-78
2021/01/29 13:11:28;;;;;;;25.37;23.20;;;12.20;67.00;;;;;;5032737;28;20452;-79
2021/01/29 13:14:04;;;;;;;24.60;23.00;;;12.40;67.20;;;;;;5032588;28;20458;-78
2021/01/29 13:16:40;;;;;;;25.83;24.13;;;12.40;67.20;;;;;;5032508;28;20450;-78
2021/01/29 13:19:20;;;;;;;25.60;24.10;;;12.50;67.80;;;;;;5032718;28;20455;-78
2021/01/29 13:21:51;;;;;;;23.40;21.90;;;12.50;68.20;;;;;;5032422;28;21069;-78
2021/01/29 13:24:20;;;;;;;36.63;22.87;;;12.60;68.40;;;;;;5032623;28;20466;-78
2021/01/29 13:26:48;;;;;;;22.50;21.30;;;12.60;68.20;;;;;;5032325;28;20476;-78